Time;durP1;ratioP1;P1;durP2;ratioP2;P2;SDS_P1;SDS_P2;PMS_P1;PMS_P2;Temp;Humidity;BMP_temperature;BMP_pressure;BME280_temperature;BME280_humidity;BME280_pressure;Samples;Min_cycle;Max_cycle;Signal;HPM_P1;HPM_P2
2022/01/07 00:01:04;;;;;;;9.82;5.22;;;;;;;-1.90;90.47;96017.31;4815491;29;20054;-45
2022/01/07 00:03:32;;;;;;;11.05;5.00;;;;;;;-2.14;90.10;96024.78;4834190;29;20046;-45
2022/01/07 00:06:00;;;;;;;9.10;4.78;;;;;;;-2.14;91.48;96026.63;4821988;29;20052;-45
2022/01/07 00:08:28;;;;;;;13.10;6.20;;;;;;;-1.67;89.73;96026.81;4823756;29;20098;-46
2022/01/07 00:10:56;;;;;;;9.15;5.63;;;;;;;-1.01;84.85;96036.31;4844243;29;20145;-52
2022/01/07 00:13:24;;;;;;;8.90;5.15;;;;;;;-0.76;83.26;96027.72;4840261;29;20050;-49
2022/01/07 00:15:53;;;;;;;13.05;5.22;;;;;;;-1.35;86.78;96031.31;4824845;29;20424;-49
2022/01/07 00:18:21;;;;;;;12.02;5.93;;;;;;;-1.72;89.17;96037.38;4843425;29;20492;-51
2022/01/07 00:20:49;;;;;;;12.80;5.95;;;;;;;-1.31;87.50;96026.28;4843939;29;20045;-53
2022/01/07 00:23:16;;;;;;;9.30;5.97;;;;;;;-0.75;83.94;96022.16;4825774;29;20434;-47
2022/01/07 00:25:43;;;;;;;10.85;5.78;;;;;;;-0.64;82.04;96016.88;4839177;29;20050;-47
2022/01/07 00:28:10;;;;;;;11.32;5.97;;;;;;;-0.46;80.92;96024.41;4825175;29;20046;-52
2022/01/07 00:30:38;;;;;;;12.52;5.75;;;;;;;-0.48;81.35;96037.97;4841483;29;20042;-49
2022/01/07 00:33:05;;;;;;;10.38;5.80;;;;;;;-0.48;81.31;96034.50;4841887;29;20488;-49
2022/01/07 00:35:33;;;;;;;8.95;5.13;;;;;;;-0.56;81.45;96042.97;4857731;29;20050;-48
2022/01/07 00:38:00;;;;;;;9.75;5.00;;;;;;;-0.61;80.61;96050.91;4839940;29;20042;-50
2022/01/07 00:40:26;;;;;;;9.88;5.00;;;;;;;-0.69;81.12;96033.59;4825092;29;20057;-49
2022/01/07 00:42:54;;;;;;;11.38;5.03;;;;;;;-0.85;81.81;96034.56;4824498;29;20050;-50
2022/01/07 00:45:23;;;;;;;8.55;4.88;;;;;;;-0.84;81.79;96028.22;4825165;29;20085;-51
2022/01/07 00:47:51;;;;;;;11.30;4.80;;;;;;;-0.75;81.25;96024.81;4827818;29;20590;-48
2022/01/07 00:50:21;;;;;;;8.60;4.78;;;;;;;-0.71;80.81;96019.78;4825034;29;20073;-51
2022/01/07 00:52:48;;;;;;;9.63;4.57;;;;;;;-0.65;80.59;96016.09;4834840;29;20129;-50
2022/01/07 00:55:16;;;;;;;9.95;4.28;;;;;;;-0.65;80.41;96010.78;4824923;29;20056;-50
2022/01/07 00:57:44;;;;;;;9.35;4.57;;;;;;;-0.64;80.58;96001.75;4823459;29;20054;-46
2022/01/07 01:00:13;;;;;;;10.65;4.60;;;;;;;-0.65;80.42;96004.66;4824821;29;20456;-47
2022/01/07 01:02:41;;;;;;;9.38;4.22;;;;;;;-0.59;80.03;96000.94;4826758;29;20133;-48
2022/01/07 01:05:10;;;;;;;7.35;4.05;;;;;;;-0.66;80.14;95990.56;4824463;29;20055;-46
2022/01/07 01:07:38;;;;;;;9.82;4.30;;;;;;;-0.61;80.12;95987.94;4824133;29;20138;-48
2022/01/07 01:10:07;;;;;;;8.38;4.30;;;;;;;-0.58;79.57;95979.44;4824576;29;20047;-49
2022/01/07 01:12:36;;;;;;;7.15;4.25;;;;;;;-0.59;79.47;95977.03;4836784;29;20050;-49
2022/01/07 01:15:05;;;;;;;7.75;3.90;;;;;;;-0.62;79.49;95985.53;4857204;29;20053;-46
2022/01/07 01:17:32;;;;;;;9.10;4.13;;;;;;;-0.67;79.67;95982.88;4836341;29;20063;-48
2022/01/07 01:19:59;;;;;;;9.25;4.68;;;;;;;-0.63;79.35;95990.03;4824424;29;20053;-48
2022/01/07 01:22:26;;;;;;;9.70;3.88;;;;;;;-0.65;79.44;95994.84;4840649;29;20057;-47
2022/01/07 01:24:53;;;;;;;8.48;4.18;;;;;;;-0.71;79.51;95988.69;4824522;29;20532;-49
2022/01/07 01:27:20;;;;;;;6.22;3.90;;;;;;;-0.69;79.62;95977.00;4824278;29;20046;-47
2022/01/07 01:29:47;;;;;;;9.55;4.57;;;;;;;-0.68;79.69;95975.94;4841550;29;20041;-49
2022/01/07 01:32:16;;;;;;;7.38;3.67;;;;;;;-0.66;79.49;95969.31;4832626;29;20053;-48
2022/01/07 01:34:43;;;;;;;8.77;4.07;;;;;;;-0.66;79.12;95964.00;4824199;29;20054;-47
2022/01/07 01:37:10;;;;;;;7.57;4.10;;;;;;;-0.65;79.33;95964.78;4837722;29;20046;-48
2022/01/07 01:39:37;;;;;;;8.05;4.22;;;;;;;-0.73;79.33;95958.13;4831448;29;20042;-50
2022/01/07 01:42:05;;;;;;;9.15;3.78;;;;;;;-0.75;79.24;95963.72;4855334;29;20045;-52
2022/01/07 01:44:32;;;;;;;6.93;3.58;;;;;;;-0.71;78.73;95964.00;4842262;29;20053;-47
2022/01/07 01:46:59;;;;;;;8.18;2.97;;;;;;;-0.75;78.94;95965.53;4835161;29;20049;-52
2022/01/07 01:49:26;;;;;;;9.50;3.55;;;;;;;-0.80;78.65;95958.38;4822447;29;20054;-51
2022/01/07 01:51:53;;;;;;;7.90;3.47;;;;;;;-1.04;79.23;95954.50;4822701;29;20042;-47
2022/01/07 01:54:20;;;;;;;7.18;3.35;;;;;;;-0.99;79.20;95954.56;4823559;29;20129;-48
2022/01/07 01:56:47;;;;;;;10.50;4.07;;;;;;;-0.88;78.65;95956.19;4823724;29;20058;-46
2022/01/07 01:59:25;;;;;;;8.25;3.83;;;;;;;-0.79;78.29;95964.47;4823993;29;20095;-47
2022/01/07 02:01:53;;;;;;;7.43;3.92;;;;;;;-0.88;78.36;95948.22;4831206;29;20528;-50
2022/01/07 02:04:21;;;;;;;5.10;2.88;;;;;;;-0.92;78.26;95955.13;4823639;29;20497;-49
2022/01/07 02:06:49;;;;;;;7.20;3.03;;;;;;;-1.05;78.31;95948.41;4823700;29;20061;-46
2022/01/07 02:09:18;;;;;;;8.35;2.92;;;;;;;-1.18;78.77;95941.69;4840499;29;20050;-50
2022/01/07 02:11:45;;;;;;;5.47;2.88;;;;;;;-1.11;78.44;95945.97;4839277;29;20158;-48
2022/01/07 02:14:12;;;;;;;5.07;2.90;;;;;;;-1.18;78.42;95943.56;4824131;29;20054;-48
2022/01/07 02:16:38;;;;;;;6.03;2.90;;;;;;;-1.18;78.43;95941.69;4823451;29;20050;-48
2022/01/07 02:19:05;;;;;;;7.95;2.70;;;;;;;-1.21;78.44;95936.91;4839999;29;20045;-50
2022/01/07 02:21:37;;;;;;;4.63;2.67;;;;;;;-1.15;78.11;95935.09;4839267;29;20042;-48
2022/01/07 02:24:05;;;;;;;4.05;2.33;;;;;;;-1.08;77.41;95948.13;4844474;29;20508;-48
2022/01/07 02:26:34;;;;;;;7.40;3.38;;;;;;;-1.10;77.74;95950.25;4843578;29;20050;-52
2022/01/07 02:29:03;;;;;;;7.72;2.65;;;;;;;-1.25;77.56;95945.66;4808783;29;20047;-49
2022/01/07 02:31:30;;;;;;;4.75;2.70;;;;;;;-1.29;77.93;95945.38;4842668;29;20141;-47
2022/01/07 02:33:57;;;;;;;5.07;3.00;;;;;;;-1.55;78.89;95946.25;4826947;29;20046;-49
2022/01/07 02:36:24;;;;;;;5.70;2.90;;;;;;;-1.65;79.88;95934.50;4826248;29;20129;-50
2022/01/07 02:38:51;;;;;;;6.57;3.08;;;;;;;-1.70;79.63;95936.31;4825531;29;20137;-48
2022/01/07 02:41:18;;;;;;;6.10;3.40;;;;;;;-2.22;82.31;95936.94;4809633;29;20093;-49
2022/01/07 02:43:45;;;;;;;9.68;3.30;;;;;;;-2.10;81.91;95926.19;4825158;29;20403;-48
2022/01/07 02:46:12;;;;;;;5.97;2.90;;;;;;;-2.25;82.71;95940.91;4823963;29;20126;-50
2022/01/07 02:48:39;;;;;;;6.15;3.33;;;;;;;-2.31;82.42;95938.44;4823035;29;20081;-46
2022/01/07 02:51:06;;;;;;;7.63;3.15;;;;;;;-1.96;nan;95932.66;4823124;29;20055;-47
2022/01/07 02:53:33;;;;;;;7.03;2.75;;;;;;;-2.38;82.77;95928.84;4818196;29;20185;-46
2022/01/07 02:56:00;;;;;;;5.85;3.00;;;;;;;-2.95;85.11;95928.50;4818562;29;20058;-44
2022/01/07 02:58:27;;;;;;;4.70;2.85;;;;;;;-2.98;85.67;95919.19;4823158;29;20059;-46
2022/01/07 03:00:54;;;;;;;7.45;3.22;;;;;;;-2.96;85.93;95913.66;4822853;29;20038;-44
2022/01/07 03:03:21;;;;;;;6.40;3.17;;;;;;;-2.87;85.68;95928.06;4822443;29;20050;-49
2022/01/07 03:05:48;;;;;;;8.10;3.13;;;;;;;-3.29;87.30;95918.00;4823420;29;20424;-45
2022/01/07 03:08:15;;;;;;;8.43;3.15;;;;;;;-2.85;85.31;95925.97;4823124;29;20481;-47
2022/01/07 03:10:42;;;;;;;6.63;3.53;;;;;;;-3.13;86.21;95925.09;4828188;29;20109;-46
2022/01/07 03:13:09;;;;;;;7.47;3.38;;;;;;;-3.00;86.03;95915.19;4822727;29;20061;-44
2022/01/07 03:15:37;;;;;;;8.88;2.90;;;;;;;-2.59;84.09;95906.66;4822885;29;20066;-46
2022/01/07 03:18:06;;;;;;;5.97;3.13;;;;;;;-2.88;85.02;95906.06;4818534;29;20058;-45
2022/01/07 03:20:38;;;;;;;5.53;3.42;;;;;;;-2.30;83.08;95898.47;4804991;29;20238;-45
2022/01/07 03:23:07;;;;;;;8.98;3.30;;;;;;;-2.65;83.77;95902.34;4818526;29;20489;-43
2022/01/07 03:25:34;;;;;;;7.10;3.25;;;;;;;-3.57;87.80;95911.81;4822503;29;20132;-45
2022/01/07 03:28:01;;;;;;;5.15;3.13;;;;;;;-3.72;89.45;95914.25;4822986;29;20054;-46
2022/01/07 03:30:29;;;;;;;8.13;3.00;;;;;;;-3.94;90.08;95905.44;4821902;29;20425;-45
2022/01/07 03:32:57;;;;;;;5.70;3.22;;;;;;;-3.35;88.21;95909.22;4821751;29;20084;-45
2022/01/07 03:35:25;;;;;;;5.85;3.42;;;;;;;-2.60;83.88;95909.53;4822521;29;20050;-46
2022/01/07 03:37:52;;;;;;;8.13;3.83;;;;;;;-2.96;86.29;95905.69;4820947;29;20055;-44
2022/01/07 03:40:19;;;;;;;7.13;4.47;;;;;;;-3.03;87.14;95894.50;4827002;29;20057;-53
2022/01/07 03:42:47;;;;;;;8.55;3.90;;;;;;;-2.92;86.78;95893.59;4823194;29;20423;-47
2022/01/07 03:45:14;;;;;;;8.38;3.67;;;;;;;-2.33;82.90;95882.28;4826145;29;20056;-47
2022/01/07 03:47:42;;;;;;;9.55;3.53;;;;;;;-2.42;83.01;95876.63;4825311;29;20626;-48
2022/01/07 03:50:12;;;;;;;6.97;3.55;;;;;;;-2.82;85.49;95885.75;4825963;29;20046;-49
2022/01/07 03:52:40;;;;;;;7.80;3.42;;;;;;;-3.65;88.90;95890.28;4830841;29;20042;-49
2022/01/07 03:55:11;;;;;;;7.63;4.15;;;;;;;-3.83;89.73;95900.06;4840121;29;20495;-49
2022/01/07 03:57:39;;;;;;;8.15;3.78;;;;;;;-3.36;86.84;95893.56;4825963;29;20054;-49
2022/01/07 04:00:09;;;;;;;6.85;3.28;;;;;;;-2.90;85.04;95894.13;4830555;29;20045;-50
2022/01/07 04:02:38;;;;;;;7.15;3.30;;;;;;;-3.40;85.98;95892.47;4830309;29;20149;-51
2022/01/07 04:05:06;;;;;;;9.52;3.35;;;;;;;-2.96;84.88;95895.91;4824190;29;20058;-48
2022/01/07 04:07:33;;;;;;;5.40;3.13;;;;;;;-3.43;85.58;95899.03;4825319;29;20052;-50
2022/01/07 04:10:00;;;;;;;10.13;3.00;;;;;;;-4.15;89.19;95897.19;4856712;29;20042;-49
2022/01/07 04:12:27;;;;;;;5.75;3.20;;;;;;;-3.68;88.46;95906.63;4833045;29;20057;-50
2022/01/07 04:15:08;;;;;;;6.57;3.10;;;;;;;-3.61;88.48;95894.03;4824353;29;20050;-46
2022/01/07 04:17:44;;;;;;;7.25;3.65;;;;;;;-3.34;86.96;95905.53;4826675;29;20054;-51
2022/01/07 04:20:14;;;;;;;6.93;3.00;;;;;;;-3.03;83.83;95905.88;4828401;29;20043;-49
2022/01/07 04:22:42;;;;;;;8.23;3.55;;;;;;;-3.56;87.36;95902.03;4824034;29;20089;-45
2022/01/07 04:25:18;;;;;;;5.72;3.15;;;;;;;-3.29;86.90;95913.50;4825284;29;20064;-45
2022/01/07 04:27:47;;;;;;;6.43;2.85;;;;;;;-2.93;83.78;95906.00;4825533;29;20065;-46
2022/01/07 04:30:14;;;;;;;5.78;2.90;;;;;;;-2.86;83.31;95898.69;4825816;29;20042;-47
2022/01/07 04:32:42;;;;;;;6.03;3.20;;;;;;;-3.01;84.09;95890.56;4824492;29;20433;-47
2022/01/07 04:35:12;;;;;;;5.65;2.83;;;;;;;-3.12;84.66;95894.13;4825452;29;20129;-47
2022/01/07 04:37:39;;;;;;;5.22;2.78;;;;;;;-3.40;85.85;95898.56;4825112;29;20088;-47
2022/01/07 04:40:09;;;;;;;5.03;2.70;;;;;;;-3.45;85.74;95898.47;4834779;29;20046;-46
2022/01/07 04:42:36;;;;;;;5.30;2.65;;;;;;;-4.15;88.89;95902.47;4831141;29;20864;-44
2022/01/07 04:45:05;;;;;;;8.43;3.15;;;;;;;-4.20;89.05;95904.22;4825106;29;20102;-47
2022/01/07 04:47:35;;;;;;;6.45;2.75;;;;;;;-4.09;89.40;95901.53;4823813;29;20058;-46
2022/01/07 04:50:05;;;;;;;5.40;3.17;;;;;;;-3.40;86.84;95906.50;4839622;29;20057;-47
2022/01/07 04:52:32;;;;;;;5.55;2.58;;;;;;;-3.83;87.74;95905.38;4841613;29;20080;-43
2022/01/07 04:54:59;;;;;;;4.93;2.55;;;;;;;-3.89;87.94;95906.31;4857089;29;20052;-49
2022/01/07 04:57:25;;;;;;;6.15;2.70;;;;;;;-3.78;87.65;95904.63;4827527;29;20505;-47
2022/01/07 04:59:52;;;;;;;5.45;2.30;;;;;;;-3.25;84.17;95900.63;4824776;29;20053;-45
2022/01/07 05:02:20;;;;;;;4.80;2.00;;;;;;;-3.09;81.74;95913.00;4833098;29;20049;-46
2022/01/07 05:04:47;;;;;;;5.05;2.30;;;;;;;-3.00;81.55;95907.25;4841788;29;20057;-44
2022/01/07 05:07:16;;;;;;;3.35;1.60;;;;;;;-2.91;80.15;95911.06;4841780;29;20058;-47
2022/01/07 05:09:44;;;;;;;3.70;1.90;;;;;;;-3.04;79.97;95909.59;4842583;29;20072;-45
2022/01/07 05:12:12;;;;;;;3.40;1.52;;;;;;;-2.90;79.93;95915.31;4830666;29;20051;-44
2022/01/07 05:14:39;;;;;;;3.20;1.50;;;;;;;-2.77;79.14;95914.13;4824228;29;20052;-46
2022/01/07 05:17:06;;;;;;;4.45;1.80;;;;;;;-2.72;79.22;95915.00;4824375;29;20052;-44
2022/01/07 05:19:33;;;;;;;6.60;2.10;;;;;;;-3.44;81.77;95909.88;4824244;29;20084;-44
2022/01/07 05:22:00;;;;;;;7.30;2.10;;;;;;;-3.13;81.59;95906.56;4823190;29;20459;-47
2022/01/07 05:24:27;;;;;;;2.50;1.40;;;;;;;-2.78;79.57;95904.59;4824264;29;20042;-46
2022/01/07 05:26:54;;;;;;;6.10;1.63;;;;;;;-2.89;79.81;95909.78;4823062;29;20050;-46
2022/01/07 05:29:21;;;;;;;2.50;1.48;;;;;;;-2.82;79.05;95899.00;4823966;29;20103;-47
2022/01/07 05:31:48;;;;;;;6.28;1.83;;;;;;;-2.91;78.81;95897.84;4822591;29;20054;-49
2022/01/07 05:34:15;;;;;;;5.53;2.00;;;;;;;-4.07;84.11;95896.78;4823848;29;20061;-46
2022/01/07 05:36:42;;;;;;;3.30;1.58;;;;;;;-4.10;85.07;95897.25;4822919;29;20050;-50
2022/01/07 05:39:09;;;;;;;7.00;1.95;;;;;;;-4.00;84.76;95900.09;4823194;29;20168;-46
2022/01/07 05:41:36;;;;;;;3.75;1.70;;;;;;;-3.46;83.15;95896.88;4823725;29;22044;-53
2022/01/07 05:44:03;;;;;;;4.20;1.90;;;;;;;-3.63;82.47;95910.16;4837295;29;20053;-48
2022/01/07 05:46:30;;;;;;;5.38;1.80;;;;;;;-3.98;85.09;95914.91;4831761;29;20052;-46
2022/01/07 05:48:57;;;;;;;3.67;1.70;;;;;;;-3.97;85.16;95919.13;4831040;29;20061;-49
2022/01/07 05:51:24;;;;;;;4.35;1.50;;;;;;;-3.65;83.76;95914.88;4823161;29;20051;-45
2022/01/07 05:53:50;;;;;;;4.53;1.80;;;;;;;-2.98;80.42;95911.25;4833130;29;20046;-48
2022/01/07 05:56:17;;;;;;;4.35;1.80;;;;;;;-2.70;78.93;95912.88;4824044;29;20056;-46
2022/01/07 05:58:44;;;;;;;3.58;1.52;;;;;;;-2.68;78.32;95916.09;4824351;29;20118;-49
2022/01/07 06:01:12;;;;;;;1.92;1.30;;;;;;;-3.36;80.84;95909.44;4839759;29;20516;-46
2022/01/07 06:03:40;;;;;;;4.10;1.70;;;;;;;-2.79;79.68;95911.75;4828423;29;20057;-47
2022/01/07 06:06:08;;;;;;;2.90;1.55;;;;;;;-2.82;79.01;95901.66;4823162;29;20141;-49
2022/01/07 06:08:35;;;;;;;4.00;1.70;;;;;;;-2.79;79.39;95911.75;4822341;29;20046;-45
2022/01/07 06:11:02;;;;;;;5.47;1.90;;;;;;;-3.26;81.01;95909.56;4837997;29;20481;-46
2022/01/07 06:13:29;;;;;;;3.97;1.80;;;;;;;-3.37;82.67;95910.50;4822651;29;20070;-45
2022/01/07 06:15:55;;;;;;;3.38;1.60;;;;;;;-3.39;81.87;95912.56;4823367;29;20069;-47
2022/01/07 06:18:22;;;;;;;3.35;2.03;;;;;;;-2.97;79.94;95906.75;4837686;29;20170;-47
2022/01/07 06:20:50;;;;;;;4.07;1.90;;;;;;;-2.96;79.87;95906.50;4826614;29;20046;-44
2022/01/07 06:23:17;;;;;;;3.28;1.80;;;;;;;-2.83;79.08;95902.66;4837607;29;20493;-45
2022/01/07 06:25:48;;;;;;;5.45;1.95;;;;;;;-2.76;78.21;95894.53;4827937;29;20054;-48
2022/01/07 06:28:17;;;;;;;5.50;2.15;;;;;;;-3.08;80.39;95901.34;4822977;29;20055;-46
2022/01/07 06:30:44;;;;;;;2.80;1.60;;;;;;;-3.26;80.14;95906.94;4825191;29;20654;-45
2022/01/07 06:33:11;;;;;;;4.53;2.08;;;;;;;-3.65;83.35;95899.00;4822419;29;20089;-47
2022/01/07 06:35:38;;;;;;;3.88;1.80;;;;;;;-3.24;81.04;95917.28;4823161;29;20054;-44
2022/01/07 06:38:05;;;;;;;3.03;1.52;;;;;;;-3.02;79.93;95914.63;4823589;29;20149;-45
2022/01/07 06:40:32;;;;;;;3.38;1.80;;;;;;;-2.91;79.21;95905.78;4823252;29;20046;-47
2022/01/07 06:42:59;;;;;;;3.15;1.70;;;;;;;-3.20;80.85;95895.38;4836604;29;20058;-43
2022/01/07 06:45:26;;;;;;;4.82;2.25;;;;;;;-3.08;80.40;95906.63;4821903;29;20077;-50
2022/01/07 06:47:53;;;;;;;4.03;2.13;;;;;;;-3.24;81.71;95912.00;4830749;29;20038;-45
2022/01/07 06:50:20;;;;;;;4.25;2.40;;;;;;;-3.18;81.79;95914.47;4826824;29;20050;-45
2022/01/07 06:52:47;;;;;;;6.32;2.45;;;;;;;-3.24;82.34;95906.69;4847211;29;20054;-48
2022/01/07 06:55:14;;;;;;;4.82;2.40;;;;;;;-2.92;81.25;95904.19;4840481;29;20389;-45
2022/01/07 06:57:41;;;;;;;4.10;2.13;;;;;;;-2.59;79.49;95911.16;4841178;29;20057;-46
2022/01/07 07:00:09;;;;;;;5.20;2.78;;;;;;;-2.79;80.12;95906.44;4837994;29;20065;-43
2022/01/07 07:02:36;;;;;;;4.80;2.33;;;;;;;-2.76;80.38;95902.47;4817952;29;20069;-45
2022/01/07 07:05:03;;;;;;;6.53;2.92;;;;;;;-2.71;79.96;95900.69;4806805;29;20502;-47
2022/01/07 07:07:30;;;;;;;5.05;2.80;;;;;;;-2.88;80.46;95906.06;4824489;29;20065;-48
2022/01/07 07:09:57;;;;;;;5.65;2.63;;;;;;;-2.91;81.23;95908.41;4829136;29;20045;-50
2022/01/07 07:12:24;;;;;;;7.68;2.80;;;;;;;-2.84;80.58;95906.38;4843052;29;20507;-49
2022/01/07 07:14:51;;;;;;;7.65;2.90;;;;;;;-2.83;80.71;95905.31;4836747;29;20043;-48
2022/01/07 07:17:18;;;;;;;5.57;2.75;;;;;;;-2.83;80.46;95906.16;4826244;29;20054;-49
2022/01/07 07:19:45;;;;;;;5.53;2.88;;;;;;;-2.73;80.17;95896.69;4834944;29;20053;-48
2022/01/07 07:22:12;;;;;;;5.40;2.50;;;;;;;-2.64;79.94;95914.53;4824994;29;20069;-49
2022/01/07 07:24:38;;;;;;;5.22;2.60;;;;;;;-2.74;80.22;95901.19;4826313;29;20056;-47
2022/01/07 07:27:05;;;;;;;4.55;2.50;;;;;;;-2.70;80.67;95909.44;4826142;29;20074;-48
2022/01/07 07:29:32;;;;;;;5.53;2.60;;;;;;;-3.04;81.48;95903.50;4825745;29;20213;-51
2022/01/07 07:32:04;;;;;;;7.70;2.25;;;;;;;-3.30;82.24;95911.13;4820172;29;20046;-50
2022/01/07 07:37:13;;;;;;;4.97;2.60;;;;;;;-2.79;81.17;95914.38;4824290;29;20081;-47
2022/01/07 07:39:40;;;;;;;8.63;2.60;;;;;;;-2.75;81.71;95918.13;4828294;29;20100;-48
2022/01/07 07:42:08;;;;;;;4.57;2.30;;;;;;;-3.01;81.03;95919.69;4824602;29;20394;-52
2022/01/07 07:44:37;;;;;;;5.63;3.13;;;;;;;-2.67;81.20;95919.53;4835923;29;20050;-50
2022/01/07 07:47:04;;;;;;;6.47;2.80;;;;;;;-2.78;80.72;95913.34;4824887;29;20397;-49
2022/01/07 07:49:31;;;;;;;6.38;2.10;;;;;;;-2.42;79.18;95908.41;4825239;29;20050;-50
2022/01/07 07:51:58;;;;;;;5.20;2.40;;;;;;;-2.40;78.96;95908.97;4840757;29;20038;-49
2022/01/07 07:54:25;;;;;;;6.47;2.60;;;;;;;-2.24;78.36;95908.06;4822839;29;20073;-48
2022/01/07 07:56:52;;;;;;;4.20;2.30;;;;;;;-2.21;78.22;95920.81;4820832;29;20416;-47
2022/01/07 07:59:20;;;;;;;5.70;2.70;;;;;;;-2.18;77.93;95922.97;4822012;29;20057;-47
2022/01/07 08:01:47;;;;;;;5.60;2.38;;;;;;;-2.31;79.25;95918.03;4802644;29;20059;-47
2022/01/07 08:04:18;;;;;;;3.83;2.25;;;;;;;-2.72;79.09;95917.66;4822188;29;20061;-48
2022/01/07 08:06:44;;;;;;;7.40;2.53;;;;;;;-2.95;80.74;95917.91;4809814;29;20046;-48
2022/01/07 08:09:12;;;;;;;4.60;2.60;;;;;;;-2.80;80.90;95926.00;4820211;29;20111;-49
2022/01/07 08:12:05;;;;;;;6.55;2.83;;;;;;;-3.29;83.53;95925.94;4821582;29;20145;-50
2022/01/07 08:17:15;;;;;;;6.28;2.95;;;;;;;-2.67;80.54;95922.19;4811472;29;20157;-48
2022/01/07 08:19:46;;;;;;;5.53;2.88;;;;;;;-3.00;81.90;95915.19;4811583;29;20046;-50
2022/01/07 08:22:13;;;;;;;5.93;2.38;;;;;;;-2.47;80.11;95921.59;4818004;29;20584;-52
2022/01/07 08:24:40;;;;;;;6.65;3.20;;;;;;;-2.22;79.13;95919.19;4818669;29;20747;-50
2022/01/07 08:27:07;;;;;;;4.18;2.50;;;;;;;-2.79;80.47;95911.75;4818548;29;20049;-44
2022/01/07 08:29:54;;;;;;;6.80;2.97;;;;;;;-2.36;79.84;95912.72;4813801;29;20055;-47
2022/01/07 08:35:07;;;;;;;5.40;3.00;;;;;;;-2.21;79.40;95907.56;4813112;29;20050;-45
2022/01/07 08:37:34;;;;;;;8.25;3.10;;;;;;;-2.05;78.61;95907.66;4814763;29;20061;-44
2022/01/07 08:40:02;;;;;;;6.88;3.05;;;;;;;-2.17;78.96;95903.34;4823668;29;20042;-47
2022/01/07 08:42:29;;;;;;;4.97;2.90;;;;;;;-2.31;79.37;95918.03;4823313;29;20046;-44
2022/01/07 08:44:56;;;;;;;5.97;3.03;;;;;;;-2.41;79.43;95910.00;4809424;29;20063;-44
2022/01/07 08:47:25;;;;;;;7.95;3.00;;;;;;;-2.44;79.96;95911.31;4823997;29;20086;-45
2022/01/07 08:49:52;;;;;;;5.22;2.72;;;;;;;-2.50;79.97;95909.66;4816740;29;20046;-44
2022/01/07 08:52:20;;;;;;;8.05;2.92;;;;;;;-2.19;78.75;95909.94;4833693;29;20047;-46
2022/01/07 08:54:50;;;;;;;4.72;3.33;;;;;;;-2.03;78.07;95910.88;4812840;29;20782;-44
2022/01/07 08:57:20;;;;;;;7.70;2.97;;;;;;;-2.34;79.33;95894.69;4819941;29;20138;-47
2022/01/07 08:59:48;;;;;;;4.82;2.53;;;;;;;-2.68;79.22;95894.09;4822193;29;20461;-45
2022/01/07 09:02:14;;;;;;;4.60;2.35;;;;;;;-2.48;79.24;95906.75;4820356;29;20054;-45
2022/01/07 09:04:42;;;;;;;6.00;2.58;;;;;;;-2.12;78.39;95905.22;4823491;29;20137;-48
2022/01/07 09:07:09;;;;;;;6.00;2.40;;;;;;;-1.94;77.92;95896.09;4830241;29;20049;-44
2022/01/07 09:09:36;;;;;;;7.28;2.53;;;;;;;-1.96;77.64;95898.19;4825604;29;20133;-45
2022/01/07 09:12:05;;;;;;;7.20;2.28;;;;;;;-1.76;76.66;95895.69;4822171;29;20042;-44
2022/01/07 09:14:32;;;;;;;4.53;2.47;;;;;;;-1.93;76.63;95897.69;4810221;29;20070;-46
2022/01/07 09:16:59;;;;;;;4.32;2.33;;;;;;;-1.90;77.02;95898.00;4820161;29;20050;-45
2022/01/07 09:19:27;;;;;;;5.93;2.53;;;;;;;-1.76;76.13;95901.00;4831421;29;20712;-45
2022/01/07 09:21:56;;;;;;;5.25;2.50;;;;;;;-1.90;76.15;95902.50;4824827;29;20053;-47
2022/01/07 09:24:24;;;;;;;7.15;2.35;;;;;;;-1.86;76.37;95897.47;4829389;29;20042;-45
2022/01/07 09:26:51;;;;;;;5.80;3.00;;;;;;;-1.81;76.51;95900.97;4820952;29;20134;-48
2022/01/07 09:29:19;;;;;;;4.65;2.10;;;;;;;-1.99;76.15;95893.41;4819058;29;20458;-46
2022/01/07 09:31:46;;;;;;;4.40;2.50;;;;;;;-1.90;77.11;95886.59;4828880;29;20463;-46
2022/01/07 09:34:13;;;;;;;4.35;2.15;;;;;;;-1.81;76.40;95889.56;4822410;29;20051;-48
2022/01/07 09:36:53;;;;;;;4.10;2.15;;;;;;;-1.79;76.46;95882.94;4821212;29;20042;-46
2022/01/07 09:39:20;;;;;;;4.07;2.00;;;;;;;-1.65;76.01;95894.72;4818630;29;20043;-45
2022/01/07 09:41:47;;;;;;;5.65;2.10;;;;;;;-1.79;76.26;95885.59;4820634;29;22041;-49
2022/01/07 09:44:14;;;;;;;6.72;2.55;;;;;;;-1.42;75.26;95872.31;4822006;29;20042;-47
2022/01/07 09:46:42;;;;;;;7.70;2.88;;;;;;;-1.29;75.20;95863.09;4827229;29;20048;-50
2022/01/07 09:49:09;;;;;;;6.82;2.63;;;;;;;-1.07;74.48;95864.75;4825966;29;20065;-52
2022/01/07 09:51:40;;;;;;;8.25;3.00;;;;;;;-1.02;74.61;95868.22;4827095;29;20415;-48
2022/01/07 09:54:08;;;;;;;8.07;2.25;;;;;;;-1.09;74.44;95867.69;4825374;29;20483;-47
2022/01/07 09:56:37;;;;;;;5.22;2.00;;;;;;;-1.05;74.60;95866.09;4825168;29;20519;-49
2022/01/07 09:59:06;;;;;;;5.15;2.22;;;;;;;-0.97;74.65;95862.94;4822452;29;20051;-51
2022/01/07 10:02:00;;;;;;;5.53;2.45;;;;;;;-0.83;74.68;95873.09;4828037;29;20042;-45
2022/01/07 10:04:34;;;;;;;9.23;2.53;;;;;;;-0.89;74.65;95861.63;4820127;29;20137;-46
2022/01/07 10:07:17;;;;;;;6.38;2.63;;;;;;;-0.97;75.03;95872.78;4816673;29;20404;-45
2022/01/07 10:10:01;;;;;;;6.97;2.60;;;;;;;-0.94;75.05;95866.94;4817657;29;20054;-43
2022/01/07 10:12:31;;;;;;;8.07;2.65;;;;;;;-0.99;75.49;95862.41;4822417;29;20054;-44
2022/01/07 10:15:22;;;;;;;6.78;2.63;;;;;;;-0.59;74.30;95855.59;4822638;29;20109;-45
2022/01/07 10:17:59;;;;;;;4.75;2.28;;;;;;;-0.64;74.05;95852.16;4813929;29;20062;-46
2022/01/07 10:20:40;;;;;;;3.90;1.92;;;;;;;-1.10;74.12;95862.63;4823077;29;20129;-45
2022/01/07 10:23:23;;;;;;;3.00;1.70;;;;;;;-0.81;73.93;95850.53;4826653;29;20177;-46
2022/01/07 10:25:56;;;;;;;3.70;1.75;;;;;;;-1.24;74.22;95843.72;4831519;29;20081;-44
2022/01/07 10:28:29;;;;;;;4.90;2.40;;;;;;;-0.77;73.58;95835.66;4817378;29;20057;-46
2022/01/07 10:30:56;;;;;;;;;;;;;;;-0.82;73.54;95837.47;4808387;29;20069;-45
2022/01/07 10:33:27;;;;;;;5.20;2.20;;;;;;;-0.76;73.38;95833.78;4822877;29;20404;-45
2022/01/07 10:36:14;;;;;;;3.75;2.20;;;;;;;-0.71;73.58;95833.81;4835326;29;20055;-44
2022/01/07 10:38:48;;;;;;;5.82;2.38;;;;;;;-0.55;72.95;95837.28;4822837;29;20054;-45
2022/01/07 10:41:15;;;;;;;2.58;1.55;;;;;;;-1.29;73.80;95823.28;4834235;29;20401;-45
2022/01/07 10:43:43;;;;;;;3.88;1.83;;;;;;;-1.00;72.53;95826.28;4832316;29;20136;-46
2022/01/07 10:46:32;;;;;;;5.70;1.73;;;;;;;-0.83;72.77;95817.31;4822198;29;20061;-50
2022/01/07 10:49:02;;;;;;;3.95;1.80;;;;;;;-0.54;72.15;95809.66;4823102;29;20893;-49
2022/01/07 10:51:38;;;;;;;6.70;2.22;;;;;;;-0.52;71.05;95805.66;4824467;29;20050;-50
2022/01/07 10:54:10;;;;;;;3.15;1.60;;;;;;;-0.64;71.03;95807.78;4822652;29;20393;-52
2022/01/07 10:56:41;;;;;;;5.05;1.90;;;;;;;-0.33;69.58;95795.28;4831231;29;20053;-51
2022/01/07 10:59:12;;;;;;;3.10;1.60;;;;;;;-0.51;70.06;95795.81;4821121;29;20131;-52
2022/01/07 11:01:39;;;;;;;3.80;1.90;;;;;;;-0.44;69.52;95784.94;4818750;29;20042;-50
2022/01/07 11:04:10;;;;;;;2.72;1.48;;;;;;;-0.47;67.84;95786.25;4821522;29;20398;-49
2022/01/07 11:06:38;;;;;;;3.60;1.50;;;;;;;0.09;67.52;95786.22;4823040;29;20110;-50
2022/01/07 11:09:09;;;;;;;5.05;1.50;;;;;;;-0.11;67.42;95778.28;4823549;29;20047;-49
2022/01/07 11:12:05;;;;;;;3.53;1.45;;;;;;;-0.15;67.08;95787.84;4817790;29;20047;-51
2022/01/07 11:14:35;;;;;;;4.55;1.77;;;;;;;-0.02;66.70;95787.31;4829464;29;20521;-49
2022/01/07 11:17:04;;;;;;;2.83;1.20;;;;;;;0.05;65.24;95787.03;4821569;29;20050;-49
2022/01/07 11:19:41;;;;;;;2.85;1.20;;;;;;;0.13;65.46;95784.63;4819348;29;20046;-51
2022/01/07 11:22:11;;;;;;;2.53;1.08;;;;;;;0.33;65.73;95775.78;4817973;29;20559;-48
2022/01/07 11:24:45;;;;;;;4.57;1.80;;;;;;;0.53;65.64;95768.81;4819951;29;20118;-49
2022/01/07 11:27:21;;;;;;;3.42;1.60;;;;;;;0.82;64.58;95763.63;4819132;29;20046;-49
2022/01/07 11:30:04;;;;;;;3.50;1.40;;;;;;;0.77;63.78;95761.75;4814729;29;20063;-50
2022/01/07 11:32:34;;;;;;;3.83;1.50;;;;;;;0.60;64.68;95761.31;4832490;29;20428;-48
2022/01/07 11:35:16;;;;;;;3.25;1.70;;;;;;;0.63;64.40;95761.56;4820589;29;20061;-49
2022/01/07 11:37:48;;;;;;;4.13;1.52;;;;;;;0.67;64.32;95751.97;4820433;29;20042;-48
2022/01/07 11:40:32;;;;;;;4.00;1.27;;;;;;;0.79;64.41;95754.31;4815800;29;20045;-48
2022/01/07 11:43:05;;;;;;;3.28;1.52;;;;;;;0.26;64.92;95758.50;4819323;29;20038;-48
2022/01/07 11:45:31;;;;;;;2.70;1.50;;;;;;;0.42;63.46;95765.38;4811250;29;20425;-52
2022/01/07 11:48:05;;;;;;;3.70;1.35;;;;;;;0.78;64.76;95757.22;4818401;29;20301;-48
2022/01/07 11:50:32;;;;;;;3.63;1.55;;;;;;;0.89;62.94;95756.13;4818413;29;20053;-44